Time;durP1;ratioP1;P1;durP2;ratioP2;P2;SDS_P1;SDS_P2;PMS_P1;PMS_P2;Temp;Humidity;BMP_temperature;BMP_pressure;BME280_temperature;BME280_humidity;BME280_pressure;Samples;Min_cycle;Max_cycle;Signal;HPM_P1;HPM_P2
2021/10/15 00:02:15;;;;;;;10.02;4.88;;;5.10;99.90;;;;;;5036191;28;20025;-84
2021/10/15 00:04:40;;;;;;;14.00;5.78;;;5.00;99.90;;;;;;5035590;28;20033;-84
2021/10/15 00:07:06;;;;;;;7.90;5.20;;;5.00;99.90;;;;;;5017818;28;20042;-84
2021/10/15 00:09:32;;;;;;;13.18;6.47;;;5.00;99.90;;;;;;5035670;28;20053;-83
2021/10/15 00:11:58;;;;;;;11.52;5.68;;;5.00;99.90;;;;;;5035119;28;20036;-84
2021/10/15 00:14:23;;;;;;;9.15;5.55;;;5.00;99.90;;;;;;5017710;28;20022;-84
2021/10/15 00:16:49;;;;;;;12.60;5.32;;;5.00;99.90;;;;;;5018289;28;20116;-84
2021/10/15 00:19:15;;;;;;;8.93;4.70;;;5.00;99.90;;;;;;5035433;28;20044;-83
2021/10/15 00:21:40;;;;;;;11.60;4.75;;;5.00;99.90;;;;;;5035254;28;20108;-84
2021/10/15 00:24:06;;;;;;;10.65;5.43;;;4.90;99.90;;;;;;5017653;28;20480;-84
2021/10/15 00:26:32;;;;;;;9.90;5.28;;;4.90;99.90;;;;;;5035184;28;20109;-84
2021/10/15 00:28:57;;;;;;;10.43;6.10;;;4.90;99.90;;;;;;5035274;28;20044;-84
2021/10/15 00:31:23;;;;;;;9.25;5.82;;;4.90;99.90;;;;;;5017866;28;20393;-84
2021/10/15 00:33:48;;;;;;;10.18;4.68;;;4.90;99.90;;;;;;5035153;28;20353;-84
2021/10/15 00:36:14;;;;;;;11.30;4.97;;;4.90;99.90;;;;;;5034975;28;20448;-84
2021/10/15 00:38:40;;;;;;;11.13;4.45;;;4.80;99.90;;;;;;5035180;28;20533;-83
2021/10/15 00:41:06;;;;;;;8.52;4.78;;;4.80;99.90;;;;;;5016995;28;20033;-84
2021/10/15 00:43:31;;;;;;;8.52;4.38;;;4.80;99.90;;;;;;5034640;28;20049;-83
2021/10/15 00:45:57;;;;;;;8.30;4.80;;;4.80;99.90;;;;;;5017225;28;20476;-83
2021/10/15 00:48:23;;;;;;;8.60;4.13;;;4.80;99.90;;;;;;5035094;28;20037;-83
2021/10/15 00:50:49;;;;;;;6.45;3.35;;;4.80;99.90;;;;;;5034754;28;20036;-83
2021/10/15 00:53:15;;;;;;;7.00;4.13;;;4.70;99.90;;;;;;5034820;28;20095;-83
2021/10/15 00:55:44;;;;;;;7.72;3.47;;;4.70;99.90;;;;;;5035038;28;20368;-84
2021/10/15 00:58:09;;;;;;;6.30;3.85;;;4.70;99.90;;;;;;5034646;28;20029;-84
2021/10/15 01:00:35;;;;;;;11.18;4.22;;;4.70;99.90;;;;;;5016978;28;20037;-84
2021/10/15 01:03:03;;;;;;;8.18;4.45;;;4.70;99.90;;;;;;5034605;28;20113;-84
2021/10/15 01:05:29;;;;;;;9.75;3.83;;;4.70;99.90;;;;;;5034250;28;20493;-83
2021/10/15 01:07:56;;;;;;;5.22;2.90;;;4.60;99.90;;;;;;5034266;28;20108;-85
2021/10/15 01:10:23;;;;;;;6.53;4.03;;;4.60;99.90;;;;;;5016638;28;20022;-84
2021/10/15 01:12:50;;;;;;;7.65;3.92;;;4.60;99.90;;;;;;5034338;28;20026;-83
2021/10/15 01:15:15;;;;;;;8.27;4.28;;;4.60;99.90;;;;;;5034389;28;20480;-84
2021/10/15 01:17:41;;;;;;;7.80;3.70;;;4.60;99.90;;;;;;5034336;28;20037;-84
2021/10/15 01:20:07;;;;;;;7.03;4.00;;;4.50;99.90;;;;;;5034169;28;20025;-83
2021/10/15 01:22:33;;;;;;;8.13;4.03;;;4.50;99.90;;;;;;5034312;28;20026;-84
2021/10/15 01:24:59;;;;;;;12.10;4.82;;;4.50;99.90;;;;;;5033743;28;20104;-84
2021/10/15 01:27:25;;;;;;;10.77;5.07;;;4.40;99.90;;;;;;5016438;28;20440;-84
2021/10/15 01:29:51;;;;;;;5.25;3.30;;;4.40;99.90;;;;;;5034139;28;20065;-83
2021/10/15 01:32:18;;;;;;;9.63;4.15;;;4.40;99.90;;;;;;5034257;28;20101;-84
2021/10/15 01:34:45;;;;;;;12.20;6.20;;;4.40;99.90;;;;;;5033965;28;20090;-84
2021/10/15 01:37:11;;;;;;;10.13;4.72;;;4.30;99.90;;;;;;5033864;28;20055;-84
2021/10/15 01:39:37;;;;;;;15.05;5.78;;;4.40;99.90;;;;;;5033953;28;20060;-84
2021/10/15 01:42:03;;;;;;;7.03;3.42;;;4.40;99.90;;;;;;5033688;28;20065;-83
2021/10/15 01:44:29;;;;;;;7.55;4.13;;;4.40;99.90;;;;;;5033931;28;20033;-84
2021/10/15 01:46:54;;;;;;;10.00;4.63;;;4.30;99.90;;;;;;5033776;28;20095;-83
2021/10/15 01:49:20;;;;;;;7.93;4.05;;;4.40;99.90;;;;;;5033932;28;20034;-83
2021/10/15 01:51:46;;;;;;;11.52;5.10;;;4.40;99.90;;;;;;5033559;28;20065;-85
2021/10/15 01:54:11;;;;;;;7.35;4.20;;;4.40;99.90;;;;;;5033863;28;20068;-84
2021/10/15 01:56:37;;;;;;;10.63;5.40;;;4.30;99.90;;;;;;5034113;28;20388;-84
2021/10/15 01:59:04;;;;;;;9.25;3.85;;;4.30;99.90;;;;;;5033635;28;20033;-83
2021/10/15 02:01:30;;;;;;;9.48;4.25;;;4.30;99.90;;;;;;5033758;28;20036;-83
2021/10/15 02:03:55;;;;;;;5.95;3.53;;;4.30;99.90;;;;;;5015922;28;20414;-84
2021/10/15 02:06:21;;;;;;;10.23;3.45;;;4.20;99.90;;;;;;5015822;28;20120;-84
2021/10/15 02:08:47;;;;;;;7.40;3.45;;;4.20;99.90;;;;;;5033354;28;20465;-83
2021/10/15 02:11:13;;;;;;;7.63;3.55;;;4.20;99.90;;;;;;5016340;28;20491;-84
2021/10/15 02:13:40;;;;;;;8.65;4.32;;;4.10;99.90;;;;;;5033456;28;20026;-84
2021/10/15 02:16:05;;;;;;;7.95;3.45;;;4.10;99.90;;;;;;5033660;28;20048;-83
2021/10/15 02:18:31;;;;;;;7.35;3.13;;;4.10;99.90;;;;;;5033368;28;20461;-83
2021/10/15 02:20:57;;;;;;;7.90;4.28;;;4.10;99.90;;;;;;5033280;28;20030;-84
2021/10/15 02:23:23;;;;;;;9.60;4.43;;;4.00;99.90;;;;;;5015991;28;20083;-83
2021/10/15 02:25:49;;;;;;;9.05;3.78;;;4.00;99.90;;;;;;5033130;28;20488;-84
2021/10/15 02:28:15;;;;;;;6.10;3.55;;;4.00;99.90;;;;;;5033385;28;20034;-83
2021/10/15 02:30:40;;;;;;;9.57;3.75;;;4.00;99.90;;;;;;5033203;28;20478;-83
2021/10/15 02:33:06;;;;;;;5.82;3.50;;;4.00;99.90;;;;;;5033234;28;20030;-84
2021/10/15 02:35:32;;;;;;;10.02;5.38;;;4.00;99.90;;;;;;5035171;28;20412;-84
2021/10/15 02:38:00;;;;;;;9.07;4.22;;;3.90;99.90;;;;;;5037599;28;20376;-84
2021/10/15 02:40:30;;;;;;;8.23;4.95;;;3.90;99.90;;;;;;5019489;28;20075;-83
2021/10/15 02:42:57;;;;;;;7.72;4.28;;;3.90;99.90;;;;;;5037316;28;20475;-83
2021/10/15 02:45:23;;;;;;;9.02;4.57;;;3.90;99.90;;;;;;5037344;28;20471;-83
2021/10/15 02:47:49;;;;;;;7.15;4.97;;;3.90;99.90;;;;;;5036877;28;20393;-83
2021/10/15 02:50:15;;;;;;;8.25;5.05;;;3.90;99.90;;;;;;5019282;28;20021;-84
2021/10/15 02:52:41;;;;;;;8.40;4.82;;;3.90;99.90;;;;;;5019285;28;20026;-83
2021/10/15 02:55:07;;;;;;;10.93;5.57;;;4.00;99.90;;;;;;5037355;28;20045;-83
2021/10/15 02:57:33;;;;;;;16.70;6.50;;;4.00;99.90;;;;;;5036744;28;20029;-84
2021/10/15 02:59:59;;;;;;;11.85;6.75;;;3.90;99.90;;;;;;5019267;28;20079;-83
2021/10/15 03:02:24;;;;;;;10.95;5.70;;;3.90;99.90;;;;;;5036968;28;20049;-83
2021/10/15 03:04:50;;;;;;;11.45;6.53;;;4.00;99.90;;;;;;5019119;28;20465;-84
2021/10/15 03:07:16;;;;;;;11.90;5.40;;;3.90;99.90;;;;;;5036668;28;20427;-83
2021/10/15 03:09:41;;;;;;;14.32;8.48;;;3.90;99.90;;;;;;5036854;28;20025;-83
2021/10/15 03:12:07;;;;;;;11.43;6.15;;;3.90;99.90;;;;;;5018879;28;20033;-83
2021/10/15 03:14:34;;;;;;;11.75;6.43;;;3.90;99.90;;;;;;5037174;28;20025;-83
2021/10/15 03:16:59;;;;;;;14.27;6.97;;;3.90;99.90;;;;;;5036521;28;20060;-83
2021/10/15 03:19:25;;;;;;;13.35;7.47;;;3.90;99.90;;;;;;5036505;28;20057;-84
2021/10/15 03:21:51;;;;;;;11.13;5.78;;;3.90;99.90;;;;;;5036365;28;20030;-84
2021/10/15 03:24:17;;;;;;;12.43;7.68;;;3.90;99.90;;;;;;5036015;28;20025;-84
2021/10/15 03:26:43;;;;;;;15.82;6.32;;;3.90;99.90;;;;;;5035993;28;20026;-83
2021/10/15 03:29:08;;;;;;;12.25;6.10;;;3.90;99.90;;;;;;5036088;28;20029;-85
2021/10/15 03:31:34;;;;;;;13.07;6.78;;;3.80;99.90;;;;;;5036298;28;20104;-83
2021/10/15 03:34:00;;;;;;;11.00;5.80;;;3.90;99.90;;;;;;5036235;28;20029;-84
2021/10/15 03:36:26;;;;;;;14.15;6.97;;;3.80;99.90;;;;;;5036523;28;20547;-83
2021/10/15 03:38:51;;;;;;;11.70;6.38;;;3.80;99.90;;;;;;5018840;28;20033;-83
2021/10/15 03:41:17;;;;;;;11.50;5.85;;;3.80;99.90;;;;;;5018713;28;20032;-83
2021/10/15 03:43:43;;;;;;;19.55;6.82;;;3.80;99.90;;;;;;5036106;28;20072;-83
2021/10/15 03:46:08;;;;;;;11.25;6.53;;;3.80;99.90;;;;;;5035034;28;20034;-83
2021/10/15 03:48:34;;;;;;;9.18;6.13;;;3.80;99.90;;;;;;5017822;28;20034;-84
2021/10/15 03:51:00;;;;;;;9.23;6.18;;;3.80;99.90;;;;;;5018579;28;20026;-83
2021/10/15 03:53:25;;;;;;;11.50;6.43;;;3.70;99.90;;;;;;5036070;28;20540;-84
2021/10/15 03:55:51;;;;;;;12.20;6.22;;;3.70;99.90;;;;;;5036077;28;20033;-83
2021/10/15 03:58:17;;;;;;;10.80;5.88;;;3.70;99.90;;;;;;5035991;28;20488;-83
2021/10/15 04:00:42;;;;;;;10.98;5.68;;;3.70;99.90;;;;;;5018290;28;20094;-83
2021/10/15 04:03:08;;;;;;;15.60;7.18;;;3.70;99.90;;;;;;5035689;28;20022;-84
2021/10/15 04:05:34;;;;;;;10.77;4.53;;;3.70;99.90;;;;;;5035615;28;20036;-83
2021/10/15 04:07:59;;;;;;;9.35;4.95;;;3.70;99.90;;;;;;5035622;28;20030;-84
2021/10/15 04:10:25;;;;;;;10.40;4.78;;;3.70;99.90;;;;;;5035298;28;20079;-84
2021/10/15 04:12:51;;;;;;;10.65;4.82;;;3.60;99.90;;;;;;5035402;28;20034;-83
2021/10/15 04:15:17;;;;;;;8.88;5.72;;;3.70;99.90;;;;;;5035351;28;20057;-83
2021/10/15 04:17:42;;;;;;;9.75;4.15;;;3.60;99.90;;;;;;5017614;28;20033;-84
2021/10/15 04:20:09;;;;;;;5.55;3.80;;;3.70;99.90;;;;;;5035419;28;20021;-84
2021/10/15 04:22:35;;;;;;;8.68;4.75;;;3.70;99.90;;;;;;5035346;28;20053;-84
2021/10/15 04:25:01;;;;;;;11.23;4.35;;;3.60;99.90;;;;;;5035202;28;20060;-83
2021/10/15 04:27:27;;;;;;;8.55;4.70;;;3.70;99.90;;;;;;5035098;28;20452;-83
2021/10/15 04:29:52;;;;;;;5.80;3.75;;;3.70;99.90;;;;;;5017348;28;20472;-83
2021/10/15 04:32:19;;;;;;;8.35;4.18;;;3.70;99.90;;;;;;5035158;28;20025;-84
2021/10/15 04:34:44;;;;;;;12.00;5.93;;;3.70;99.90;;;;;;5035325;28;20036;-84
2021/10/15 04:37:10;;;;;;;8.40;4.22;;;3.80;99.90;;;;;;5035002;28;20467;-83
2021/10/15 04:39:36;;;;;;;7.82;4.93;;;3.80;99.90;;;;;;5034937;28;20053;-83
2021/10/15 04:42:01;;;;;;;8.95;5.30;;;3.80;99.90;;;;;;5016895;28;20044;-84
2021/10/15 04:44:27;;;;;;;6.35;3.55;;;3.90;99.90;;;;;;5034906;28;20602;-84
2021/10/15 04:46:53;;;;;;;10.23;4.88;;;3.90;99.90;;;;;;5016224;28;20491;-84
2021/10/15 04:49:18;;;;;;;5.97;4.53;;;4.00;99.90;;;;;;5016900;28;20060;-83
2021/10/15 04:51:45;;;;;;;10.23;5.82;;;4.10;99.90;;;;;;5016878;28;20033;-85
2021/10/15 04:54:10;;;;;;;10.40;4.95;;;4.10;99.90;;;;;;5034432;28;20035;-84
2021/10/15 04:56:36;;;;;;;9.68;4.40;;;4.20;99.90;;;;;;5034792;28;20026;-84
2021/10/15 04:59:02;;;;;;;9.65;5.13;;;4.20;99.90;;;;;;5034314;28;20032;-83
2021/10/15 05:01:27;;;;;;;8.25;5.13;;;4.30;99.90;;;;;;5016722;28;20121;-84
2021/10/15 05:03:53;;;;;;;7.03;3.90;;;4.40;99.90;;;;;;5034736;28;20025;-84
2021/10/15 05:06:19;;;;;;;9.02;4.53;;;4.50;99.90;;;;;;5034402;28;20480;-84
2021/10/15 05:11:32;;;;;;;9.75;5.60;;;4.60;99.90;;;;;;4993956;28;20053;-84
2021/10/15 05:13:57;;;;;;;11.18;6.30;;;4.70;99.90;;;;;;5016073;28;20067;-85
2021/10/15 05:16:23;;;;;;;9.32;5.68;;;4.70;99.90;;;;;;5034773;28;20490;-84
2021/10/15 05:18:49;;;;;;;10.82;5.30;;;4.90;99.90;;;;;;5033790;28;20056;-84
2021/10/15 05:21:16;;;;;;;7.93;5.00;;;4.90;99.90;;;;;;5034007;28;20025;-84
2021/10/15 05:23:41;;;;;;;9.95;4.65;;;5.00;99.90;;;;;;5016710;28;20065;-83
2021/10/15 05:26:07;;;;;;;11.60;5.97;;;5.10;99.90;;;;;;5034118;28;20068;-83
2021/10/15 05:28:33;;;;;;;11.90;6.38;;;5.20;99.90;;;;;;5034001;28;20025;-84
2021/10/15 05:30:59;;;;;;;8.57;4.50;;;5.30;99.90;;;;;;5034213;28;20029;-84
2021/10/15 05:33:25;;;;;;;10.50;6.10;;;5.40;99.90;;;;;;5033728;28;20029;-84
2021/10/15 05:35:51;;;;;;;10.27;5.88;;;5.50;99.90;;;;;;5016213;28;20155;-84
2021/10/15 05:38:16;;;;;;;8.75;5.28;;;5.60;99.90;;;;;;5034093;28;20037;-83
2021/10/15 05:40:42;;;;;;;8.82;5.40;;;5.70;99.90;;;;;;5034021;28;20047;-83
2021/10/15 05:43:08;;;;;;;8.88;5.35;;;5.80;99.90;;;;;;5033335;28;20096;-83
2021/10/15 05:45:34;;;;;;;5.75;4.30;;;5.90;99.90;;;;;;5033956;28;20376;-83
2021/10/15 05:47:59;;;;;;;10.88;5.85;;;6.10;99.90;;;;;;5033329;28;20040;-85
2021/10/15 05:50:27;;;;;;;10.45;5.13;;;6.30;99.90;;;;;;5032991;28;20025;-83
2021/10/15 05:52:53;;;;;;;10.13;6.20;;;6.40;99.90;;;;;;5033205;28;20028;-83
2021/10/15 05:55:40;;;;;;;10.38;5.40;;;6.50;99.90;;;;;;5032936;28;20461;-84
2021/10/15 06:00:50;;;;;;;12.02;5.78;;;6.70;99.90;;;;;;5033816;28;20036;-84
2021/10/15 06:03:19;;;;;;;8.77;6.25;;;6.80;99.90;;;;;;5015814;28;20025;-84
2021/10/15 06:14:14;;;;;;;12.70;6.78;;;7.30;99.90;;;;;;5033664;28;20044;-83
2021/10/15 06:16:23;;;;;;;9.20;5.20;;;7.40;99.90;;;;;;5032294;28;20469;-84
2021/10/15 06:19:04;;;;;;;8.13;5.05;;;7.50;99.90;;;;;;5015645;28;20060;-84
2021/10/15 06:21:31;;;;;;;8.90;5.00;;;7.60;99.90;;;;;;5033211;28;20026;-84
2021/10/15 06:23:57;;;;;;;9.07;5.60;;;7.70;99.90;;;;;;5033276;28;20028;-84
2021/10/15 06:26:22;;;;;;;10.45;5.47;;;7.80;99.90;;;;;;5015227;28;20025;-83
2021/10/15 06:28:48;;;;;;;9.70;6.20;;;7.90;99.90;;;;;;5033023;28;20034;-84
2021/10/15 06:31:14;;;;;;;10.45;6.43;;;8.00;99.90;;;;;;5032846;28;20427;-84
2021/10/15 06:33:39;;;;;;;14.30;8.30;;;8.10;99.90;;;;;;5032845;28;20145;-84
2021/10/15 06:36:05;;;;;;;10.40;5.93;;;8.20;99.90;;;;;;5015479;28;20075;-84
2021/10/15 06:38:31;;;;;;;9.85;6.47;;;8.30;99.90;;;;;;5032962;28;20090;-84
2021/10/15 06:40:57;;;;;;;12.30;6.50;;;8.30;99.90;;;;;;5033079;28;20028;-84
2021/10/15 06:43:24;;;;;;;8.88;5.88;;;8.30;99.90;;;;;;5027057;28;20087;-84
2021/10/15 06:45:51;;;;;;;9.25;5.43;;;8.40;99.90;;;;;;5052667;28;20029;-84
2021/10/15 06:48:16;;;;;;;10.50;6.07;;;8.60;99.90;;;;;;5035065;28;20033;-84
2021/10/15 06:50:42;;;;;;;8.60;5.57;;;8.70;99.90;;;;;;5053374;28;20047;-84
2021/10/15 06:53:08;;;;;;;8.85;5.70;;;8.80;99.90;;;;;;5052769;28;20025;-84
2021/10/15 06:55:35;;;;;;;9.23;5.60;;;8.90;99.90;;;;;;5052055;28;20033;-84
2021/10/15 06:58:01;;;;;;;12.23;6.68;;;9.00;99.90;;;;;;5052446;28;20025;-84
2021/10/15 07:00:26;;;;;;;11.68;8.18;;;9.20;99.90;;;;;;5052545;28;20452;-84
2021/10/15 07:02:52;;;;;;;10.98;6.50;;;9.20;99.90;;;;;;5052388;28;20029;-84
2021/10/15 07:05:18;;;;;;;10.55;6.88;;;9.30;99.90;;;;;;5052708;28;20415;-84
2021/10/15 07:07:43;;;;;;;10.55;7.50;;;9.40;99.90;;;;;;5052563;28;20033;-84
2021/10/15 07:10:09;;;;;;;10.73;6.38;;;9.50;99.90;;;;;;5034603;28;20460;-84
2021/10/15 07:12:40;;;;;;;11.25;7.75;;;9.50;99.90;;;;;;5034425;28;20039;-85
2021/10/15 07:15:08;;;;;;;10.43;5.75;;;9.60;99.90;;;;;;5035039;28;20029;-84
2021/10/15 07:17:34;;;;;;;10.23;5.95;;;9.60;99.90;;;;;;5052402;28;20083;-83
2021/10/15 07:20:00;;;;;;;9.63;7.20;;;9.70;99.90;;;;;;5052522;28;20029;-85
2021/10/15 07:22:25;;;;;;;9.93;6.10;;;9.80;99.90;;;;;;5036488;28;20027;-83
2021/10/15 07:24:51;;;;;;;10.65;6.28;;;9.90;99.90;;;;;;5056374;28;20064;-82
2021/10/15 07:27:17;;;;;;;10.82;7.07;;;10.00;99.90;;;;;;5038046;28;20033;-84
2021/10/15 07:29:43;;;;;;;9.85;6.63;;;10.00;99.80;;;;;;5037778;28;20424;-85
2021/10/15 07:32:08;;;;;;;9.88;6.45;;;10.10;99.60;;;;;;5037706;28;20033;-83
2021/10/15 07:34:34;;;;;;;8.80;5.07;;;10.10;99.70;;;;;;5037367;28;20037;-83
2021/10/15 07:37:00;;;;;;;9.80;6.53;;;10.20;99.80;;;;;;5055393;28;20070;-83
2021/10/15 07:39:25;;;;;;;8.90;5.38;;;10.30;99.70;;;;;;5055893;28;20028;-83
2021/10/15 07:41:51;;;;;;;7.85;6.13;;;10.40;99.70;;;;;;5055719;28;20025;-84
2021/10/15 07:44:17;;;;;;;11.90;5.78;;;10.50;99.30;;;;;;5035444;28;20037;-84
2021/10/15 07:46:43;;;;;;;9.15;6.25;;;10.60;99.10;;;;;;5035466;28;20045;-83
2021/10/15 07:49:10;;;;;;;11.20;7.05;;;10.60;99.00;;;;;;5035893;28;20424;-84
2021/10/15 07:51:36;;;;;;;9.38;6.18;;;10.70;98.80;;;;;;5035393;28;20029;-83
2021/10/15 07:54:02;;;;;;;12.10;6.95;;;10.80;98.60;;;;;;5035353;28;20025;-84
2021/10/15 07:56:28;;;;;;;10.18;7.25;;;10.90;98.50;;;;;;5035287;28;20414;-84
2021/10/15 07:58:54;;;;;;;9.70;6.20;;;10.90;97.70;;;;;;5035432;28;20076;-83
2021/10/15 08:01:20;;;;;;;9.35;5.65;;;10.90;97.30;;;;;;5017672;28;20073;-83
2021/10/15 08:03:46;;;;;;;7.32;5.65;;;10.90;97.30;;;;;;5035691;28;20087;-84
2021/10/15 08:06:11;;;;;;;8.45;5.80;;;11.00;97.20;;;;;;5035244;28;20029;-84
2021/10/15 08:08:38;;;;;;;9.40;5.47;;;11.00;97.30;;;;;;5035208;28;20117;-84
2021/10/15 08:11:04;;;;;;;9.25;5.00;;;11.10;97.10;;;;;;5017463;28;20022;-84
2021/10/15 08:13:30;;;;;;;8.52;6.13;;;11.20;97.10;;;;;;5035516;28;20018;-85
2021/10/15 08:15:57;;;;;;;8.25;5.25;;;11.20;96.70;;;;;;5035223;28;20421;-86
2021/10/15 08:18:23;;;;;;;8.05;5.65;;;11.30;96.20;;;;;;5035410;28;20467;-85
2021/10/15 08:20:55;;;;;;;9.10;5.85;;;11.30;96.00;;;;;;5017560;28;20036;-87
2021/10/15 08:23:21;;;;;;;7.65;4.72;;;11.40;95.90;;;;;;5034570;28;20029;-84
2021/10/15 08:25:47;;;;;;;6.85;4.43;;;11.40;95.80;;;;;;5034555;28;20018;-83
2021/10/15 08:28:13;;;;;;;6.65;4.40;;;11.50;95.80;;;;;;5035064;28;20460;-83
2021/10/15 08:30:38;;;;;;;8.00;4.60;;;11.60;95.80;;;;;;5035093;28;20393;-83
2021/10/15 08:33:04;;;;;;;8.00;4.38;;;11.70;95.80;;;;;;5034670;28;20458;-84
2021/10/15 08:35:30;;;;;;;7.35;4.55;;;11.80;95.30;;;;;;5034430;28;20030;-84
2021/10/15 08:37:57;;;;;;;6.35;4.85;;;11.90;95.30;;;;;;5034807;28;20368;-84
2021/10/15 08:40:23;;;;;;;8.55;5.30;;;11.90;94.40;;;;;;5016699;28;20170;-83
2021/10/15 08:42:56;;;;;;;6.18;4.25;;;11.90;94.50;;;;;;5033952;28;20045;-82
2021/10/15 08:45:30;;;;;;;6.70;4.85;;;12.00;94.40;;;;;;5034455;28;20029;-84
2021/10/15 08:47:57;;;;;;;5.43;3.97;;;12.10;94.50;;;;;;5016537;28;20045;-85
2021/10/15 08:50:24;;;;;;;7.40;4.75;;;12.10;94.20;;;;;;5034459;28;20441;-83
2021/10/15 08:52:50;;;;;;;5.10;3.88;;;12.20;94.00;;;;;;5034036;28;20029;-83
2021/10/15 08:55:16;;;;;;;6.82;4.68;;;12.30;93.40;;;;;;5016758;28;20025;-84
2021/10/15 08:57:56;;;;;;;7.88;5.22;;;12.30;92.50;;;;;;5034102;28;20362;-85
2021/10/15 09:00:27;;;;;;;6.30;4.55;;;12.30;92.00;;;;;;5034515;28;20021;-85
2021/10/15 09:03:09;;;;;;;8.10;4.72;;;12.30;91.90;;;;;;5034611;28;20026;-85
2021/10/15 09:05:35;;;;;;;7.82;4.30;;;12.40;92.00;;;;;;5034088;28;20027;-85
2021/10/15 09:08:01;;;;;;;6.60;4.93;;;12.40;91.70;;;;;;5033774;28;20041;-85
2021/10/15 09:10:32;;;;;;;4.95;3.92;;;12.50;91.50;;;;;;5016262;28;20037;-85
2021/10/15 09:13:08;;;;;;;8.05;4.95;;;12.50;90.70;;;;;;5033913;28;20029;-86
2021/10/15 09:15:35;;;;;;;8.18;5.13;;;12.50;90.50;;;;;;5034256;28;20025;-86
2021/10/15 09:18:30;;;;;;;6.80;4.90;;;12.50;90.00;;;;;;5016321;28;20033;-86
2021/10/15 09:20:56;;;;;;;3.65;3.22;;;12.50;88.60;;;;;;5016333;28;20032;-84
2021/10/15 09:23:44;;;;;;;5.68;3.50;;;12.50;90.10;;;;;;5033788;28;20025;-84
2021/10/15 09:26:13;;;;;;;5.20;3.28;;;12.60;90.20;;;;;;5033711;28;20033;-84
2021/10/15 09:28:42;;;;;;;5.38;3.90;;;12.70;90.00;;;;;;5034314;28;20088;-83
2021/10/15 09:31:09;;;;;;;4.55;3.22;;;12.80;85.80;;;;;;5016358;28;20029;-83
2021/10/15 09:33:34;;;;;;;6.13;3.90;;;12.80;85.90;;;;;;5016349;28;20369;-83
2021/10/15 09:36:08;;;;;;;4.25;3.17;;;12.80;86.90;;;;;;5033564;28;20060;-83
2021/10/15 09:38:34;;;;;;;5.57;3.70;;;12.90;84.80;;;;;;5015392;28;20032;-83
2021/10/15 09:41:00;;;;;;;5.30;3.80;;;12.90;84.80;;;;;;5033883;28;20025;-83
2021/10/15 09:43:35;;;;;;;4.40;3.28;;;12.90;83.70;;;;;;5028309;28;20495;-83
2021/10/15 09:46:01;;;;;;;4.45;2.88;;;12.90;82.20;;;;;;5034967;28;20430;-84
2021/10/15 09:48:36;;;;;;;3.25;2.67;;;12.90;83.60;;;;;;5053332;28;20033;-83
2021/10/15 09:51:20;;;;;;;4.45;2.83;;;13.00;84.00;;;;;;5053156;28;20040;-82
2021/10/15 09:54:16;;;;;;;3.22;2.25;;;13.00;83.40;;;;;;5053550;28;20460;-82
2021/10/15 09:56:45;;;;;;;2.97;2.22;;;13.10;83.80;;;;;;5053600;28;20033;-82
2021/10/15 09:59:12;;;;;;;4.18;3.15;;;13.20;84.40;;;;;;5053224;28;20025;-84
2021/10/15 10:01:38;;;;;;;4.18;3.00;;;13.30;83.00;;;;;;5035363;28;20021;-83
2021/10/15 10:04:05;;;;;;;3.97;2.92;;;13.30;83.00;;;;;;5035548;28;20021;-82
2021/10/15 10:06:32;;;;;;;3.42;2.45;;;13.40;82.30;;;;;;5053249;28;20199;-83
2021/10/15 10:08:59;;;;;;;3.55;2.20;;;13.40;80.20;;;;;;5053351;28;20029;-83
2021/10/15 10:11:26;;;;;;;3.10;2.65;;;13.50;80.20;;;;;;5035149;28;20383;-83
2021/10/15 10:13:52;;;;;;;4.70;2.88;;;13.40;78.30;;;;;;5034450;28;20467;-84
2021/10/15 10:16:19;;;;;;;4.40;3.35;;;13.50;75.80;;;;;;5035206;28;20430;-83
2021/10/15 10:18:45;;;;;;;4.50;2.83;;;13.40;74.70;;;;;;5035507;28;20123;-83
2021/10/15 10:21:23;;;;;;;5.28;3.05;;;13.40;73.10;;;;;;5053269;28;20108;-83
2021/10/15 10:23:59;;;;;;;3.95;2.63;;;13.30;69.10;;;;;;5053016;28;20025;-83
2021/10/15 10:26:25;;;;;;;2.47;2.10;;;13.30;71.60;;;;;;5035126;28;20035;-83
2021/10/15 10:29:05;;;;;;;2.88;2.38;;;13.30;71.30;;;;;;5035042;28;20472;-83
2021/10/15 10:31:33;;;;;;;3.03;2.50;;;13.30;68.80;;;;;;5053199;28;20078;-82
2021/10/15 10:34:00;;;;;;;2.67;2.10;;;13.30;70.40;;;;;;5052939;28;20025;-82
2021/10/15 10:36:28;;;;;;;3.42;2.72;;;13.30;69.90;;;;;;5035211;28;20419;-83
2021/10/15 10:38:55;;;;;;;2.72;2.20;;;13.30;70.70;;;;;;5034675;28;20025;-83
2021/10/15 10:41:28;;;;;;;3.15;2.20;;;13.40;71.70;;;;;;5035294;28;20036;-83
2021/10/15 10:43:53;;;;;;;3.20;2.35;;;13.40;70.20;;;;;;5036855;28;20048;-84
2021/10/15 10:46:23;;;;;;;3.65;2.70;;;13.40;69.80;;;;;;5032969;28;20030;-83
2021/10/15 10:48:49;;;;;;;3.33;2.33;;;13.40;67.00;;;;;;5033366;28;20038;-83
2021/10/15 10:51:20;;;;;;;3.95;2.50;;;13.40;65.80;;;;;;5015297;28;20362;-82
2021/10/15 10:54:00;;;;;;;3.47;2.40;;;13.40;67.50;;;;;;5032754;28;20025;-85
2021/10/15 10:56:38;;;;;;;2.35;1.77;;;13.40;66.50;;;;;;5034832;28;20083;-85
2021/10/15 10:59:19;;;;;;;7.30;2.55;;;13.50;67.70;;;;;;5037724;28;20384;-85
2021/10/15 11:01:53;;;;;;;3.80;1.83;;;13.50;68.70;;;;;;5036549;28;20022;-85
2021/10/15 11:04:25;;;;;;;;;;;13.60;68.30;;;;;;5019086;28;20026;-89
2021/10/15 11:06:59;;;;;;;2.58;1.98;;;13.60;66.60;;;;;;5019555;28;20371;-86
2021/10/15 11:09:52;;;;;;;3.67;2.67;;;13.70;67.80;;;;;;5019678;28;20030;-83
2021/10/15 11:12:23;;;;;;;2.80;2.10;;;13.70;66.80;;;;;;5018636;28;20087;-84
2021/10/15 11:14:54;;;;;;;2.85;2.20;;;13.70;66.50;;;;;;5019174;28;20037;-83
2021/10/15 11:17:41;;;;;;;3.55;2.35;;;13.70;64.60;;;;;;5019085;28;20532;-86
2021/10/15 11:20:19;;;;;;;2.50;2.10;;;13.70;65.60;;;;;;5036339;28;20025;-86
2021/10/15 11:23:09;;;;;;;4.03;1.95;;;13.80;66.80;;;;;;5018560;28;20461;-87
2021/10/15 11:25:45;;;;;;;1.98;1.67;;;13.80;66.70;;;;;;5036273;28;20077;-88
2021/10/15 11:28:14;;;;;;;3.65;1.90;;;13.90;66.80;;;;;;5018460;28;20045;-88
2021/10/15 11:30:44;;;;;;;2.45;2.05;;;14.00;67.00;;;;;;5036571;28;20416;-88
2021/10/15 11:33:13;;;;;;;3.38;1.92;;;14.00;66.90;;;;;;5036373;28;20519;-88
2021/10/15 11:35:41;;;;;;;3.10;2.33;;;14.00;66.00;;;;;;5018249;28;20033;-86
2021/10/15 11:38:37;;;;;;;2.65;2.00;;;14.10;66.30;;;;;;5018505;28;20025;-85
2021/10/15 11:41:11;;;;;;;2.45;2.13;;;14.10;66.50;;;;;;5014415;28;20041;-85
2021/10/15 11:43:41;;;;;;;;;;;14.10;66.10;;;;;;5032786;28;20476;-84
2021/10/15 11:46:10;;;;;;;1.63;1.52;;;14.10;62.40;;;;;;5037952;28;19939;-86
2021/10/15 11:48:48;;;;;;;3.50;1.75;;;14.10;66.40;;;;;;5055698;28;20452;-86
2021/10/15 11:51:20;;;;;;;2.15;1.38;;;14.10;65.50;;;;;;5037756;28;20101;-88
2021/10/15 11:53:55;;;;;;;2.47;1.90;;;14.10;65.40;;;;;;5055999;28;20028;-88
2021/10/15 11:56:22;;;;;;;2.30;1.65;;;14.10;65.40;;;;;;5055835;28;20033;-88
2021/10/15 11:58:49;;;;;;;3.17;2.42;;;14.10;64.90;;;;;;5055667;28;20025;-86
2021/10/15 12:01:31;;;;;;;2.38;2.03;;;14.10;62.60;;;;;;5055608;28;20029;-87
2021/10/15 12:04:06;;;;;;;2.30;1.95;;;14.00;61.50;;;;;;5048989;28;20530;-88
2021/10/15 12:06:46;;;;;;;4.43;2.17;;;14.00;62.30;;;;;;5075370;28;20028;-88
2021/10/15 12:09:11;;;;;;;2.38;1.67;;;14.00;63.20;;;;;;5057032;28;20044;-88
2021/10/15 12:11:40;;;;;;;2.33;2.03;;;14.00;63.60;;;;;;5057649;28;20028;-89
2021/10/15 12:14:30;;;;;;;2.42;1.88;;;14.00;64.00;;;;;;5058168;28;20048;-88
2021/10/15 12:17:07;;;;;;;2.60;2.17;;;14.00;63.70;;;;;;5075744;28;20029;-88
2021/10/15 12:19:41;;;;;;;2.92;2.25;;;14.00;63.00;;;;;;5075364;28;20482;-88
2021/10/15 12:22:13;;;;;;;3.10;2.08;;;14.00;64.10;;;;;;5057332;28;20463;-88
2021/10/15 12:24:50;;;;;;;3.38;2.70;;;14.00;64.20;;;;;;5057244;28;20025;-88
2021/10/15 12:27:17;;;;;;;2.63;2.20;;;14.10;60.80;;;;;;5075114;28;20024;-88
2021/10/15 12:29:53;;;;;;;2.80;2.13;;;14.10;62.80;;;;;;5075190;28;20348;-88
2021/10/15 12:32:29;;;;;;;5.00;2.25;;;14.10;63.00;;;;;;5075403;28;20031;-88
2021/10/15 12:35:10;;;;;;;3.42;2.85;;;14.10;62.60;;;;;;5056953;28;20029;-87
2021/10/15 12:37:45;;;;;;;3.40;2.55;;;14.20;63.00;;;;;;5057121;28;20029;-87
2021/10/15 12:40:14;;;;;;;3.38;2.60;;;14.20;62.70;;;;;;5075011;28;20086;-87
2021/10/15 12:42:47;;;;;;;3.08;2.30;;;14.20;62.20;;;;;;5074697;28;20083;-87
2021/10/15 12:45:15;;;;;;;3.25;2.58;;;14.30;61.80;;;;;;5057223;28;20031;-87
2021/10/15 12:47:53;;;;;;;4.18;3.08;;;14.40;62.30;;;;;;5075106;28;20086;-87
2021/10/15 12:50:18;;;;;;;3.45;2.58;;;14.40;61.00;;;;;;5056683;28;20032;-87
2021/10/15 12:52:44;;;;;;;4.05;2.58;;;14.40;61.70;;;;;;5056791;28;20051;-87
2021/10/15 12:55:19;;;;;;;7.00;2.85;;;14.50;62.10;;;;;;5064270;28;20384;-87
2021/10/15 12:57:47;;;;;;;3.15;2.47;;;14.60;62.40;;;;;;5037441;28;20067;-87
2021/10/15 13:00:15;;;;;;;2.78;2.28;;;14.60;61.70;;;;;;5036629;28;20021;-87
2021/10/15 13:02:42;;;;;;;4.88;3.10;;;14.70;62.00;;;;;;5054443;28;20025;-87
2021/10/15 13:05:17;;;;;;;3.58;2.65;;;14.80;61.50;;;;;;5054614;28;20025;-87
2021/10/15 13:07:44;;;;;;;3.63;2.70;;;14.90;60.20;;;;;;5053879;28;20408;-87
2021/10/15 13:10:12;;;;;;;4.70;3.38;;;15.00;59.90;;;;;;5054190;28;20139;-87